Time;durP1;ratioP1;P1;durP2;ratioP2;P2;SDS_P1;SDS_P2;PMS_P1;PMS_P2;Temp;Humidity;BMP_temperature;BMP_pressure;BME280_temperature;BME280_humidity;BME280_pressure;Samples;Min_cycle;Max_cycle;Signal;HPM_P1;HPM_P2
2022/03/08 04:06:55;1425438.00;4.75;2503.59;0.00;0.00;0.62;;;;;0.70;1.00;;;;;;2281373;61;1251;-84
2022/03/08 04:09:40;745282.00;2.48;1285.86;0.00;0.00;0.62;;;;;1.20;1.00;;;;;;2279794;61;2004;-86
2022/03/08 04:17:27;1395585.00;4.65;2448.14;1425.00;0.00;3.09;;;;;1.50;1.00;;;;;;2281626;61;1437;-84
2022/03/08 04:22:32;1601316.00;5.34;2835.25;0.00;0.00;0.62;;;;;0.50;1.00;;;;;;2277211;61;1447;-84
2022/03/08 04:25:02;916800.00;3.06;1585.65;0.00;0.00;0.62;;;;;0.50;1.00;;;;;;2275813;61;1531;-85
2022/03/08 04:27:37;911269.00;3.04;1575.92;0.00;0.00;0.62;;;;;0.30;1.00;;;;;;2275965;61;1589;-84
2022/03/08 04:30:31;1095089.00;3.65;1901.64;0.00;0.00;0.62;;;;;0.20;1.00;;;;;;2275995;61;2005;-84
2022/03/08 04:33:10;812066.00;2.71;1402.18;0.00;0.00;0.62;;;;;0.40;1.00;;;;;;2275962;61;1738;-84
2022/03/08 04:51:17;2920007.00;9.73;5716.29;86089.00;0.29;149.55;;;;;0.10;1.00;;;;;;2281051;61;1969;-84
2022/03/08 04:56:43;2037010.00;6.79;3700.60;146057.00;0.49;253.01;;;;;0.90;1.00;;;;;;2280923;61;1398;-86
2022/03/08 05:09:59;1632417.00;5.44;2894.85;103138.00;0.34;178.99;;;;;1.40;1.00;;;;;;2281526;61;1962;-86
2022/03/08 05:18:15;1989655.00;6.63;3603.10;168216.00;0.56;291.19;;;;;1.30;1.00;;;;;;2262946;61;991;-86
2022/03/08 05:26:04;2719766.00;9.07;5222.20;110344.00;0.37;191.42;;;;;1.50;1.00;;;;;;2281471;61;1412;-85
2022/03/08 05:28:42;1983307.00;6.61;3590.10;175154.00;0.58;303.14;;;;;1.20;1.00;;;;;;2278768;61;1102;-86
2022/03/08 05:31:39;1915774.00;6.39;3452.79;125563.00;0.42;217.68;;;;;1.20;1.00;;;;;;2271133;61;2017;-87
2022/03/08 05:34:21;1038830.00;3.46;1801.37;0.00;0.00;0.62;;;;;1.90;1.00;;;;;;2258776;61;1612;-84
2022/03/08 05:39:24;1469763.00;4.90;2586.35;13923.00;0.05;24.75;;;;;1.90;1.00;;;;;;2281587;61;1367;-85
2022/03/08 05:42:13;1247932.00;4.16;2177.13;119252.00;0.40;206.79;;;;;1.50;1.00;;;;;;2266583;61;1091;-86
2022/03/08 05:45:13;1275765.00;4.25;2227.82;48201.00;0.16;84.07;;;;;2.00;1.00;;;;;;2259012;61;1236;-86
2022/03/08 05:47:54;961584.00;3.21;1664.55;0.00;0.00;0.62;;;;;2.10;1.00;;;;;;2254088;61;1157;-85
2022/03/08 05:50:47;1044596.00;3.48;1811.62;0.00;0.00;0.62;;;;;2.30;1.00;;;;;;2245390;62;2013;-83
2022/03/08 05:55:57;1293627.00;4.31;2260.45;0.00;0.00;0.62;;;;;2.30;1.00;;;;;;2275484;61;1350;-84
2022/03/08 05:58:35;1072652.00;3.58;1861.58;0.00;0.00;0.62;;;;;2.70;1.00;;;;;;2260176;61;1155;-84
2022/03/08 06:01:12;1250558.00;4.17;2181.90;24018.00;0.08;42.23;;;;;3.00;1.00;;;;;;2252258;61;1141;-84
2022/03/08 06:06:14;1695223.00;5.65;3016.15;0.00;0.00;0.62;;;;;3.30;1.00;;;;;;2274635;61;1921;-84
2022/03/08 06:08:51;755587.00;2.52;1303.77;0.00;0.00;0.62;;;;;3.50;1.00;;;;;;2260520;61;1168;-84
2022/03/08 06:11:34;900427.00;3.00;1556.87;0.00;0.00;0.62;;;;;3.50;1.00;;;;;;2247422;61;2124;-84
2022/03/08 06:16:39;1361753.00;4.54;2385.57;0.00;0.00;0.62;;;;;3.50;1.00;;;;;;2279712;61;1418;-85
2022/03/08 06:19:09;1209543.00;4.03;2107.48;0.00;0.00;0.62;;;;;2.50;1.00;;;;;;2265437;61;1393;-85
2022/03/08 06:21:41;927909.00;3.09;1605.19;39792.00;0.13;69.53;;;;;2.30;1.00;;;;;;2257387;61;1080;-85
2022/03/08 06:37:01;1647602.00;5.49;2924.06;40981.00;0.14;71.59;;;;;4.10;1.00;;;;;;2279060;61;1445;-84
2022/03/08 06:39:40;1264679.00;4.22;2207.61;34188.00;0.11;59.83;;;;;4.80;1.00;;;;;;2264724;61;1091;-84
2022/03/08 06:44:48;1826260.00;6.09;3273.47;147693.00;0.49;255.83;;;;;4.00;1.00;;;;;;2279375;61;1439;-85
2022/03/08 06:47:22;1247282.00;4.16;2175.94;84479.00;0.28;146.77;;;;;3.90;1.00;;;;;;2277819;61;1227;-84
2022/03/08 06:49:51;1034248.00;3.45;1793.22;91681.00;0.31;159.21;;;;;4.00;1.00;;;;;;2264289;61;1920;-84
2022/03/08 06:54:58;1110250.00;3.70;1928.76;28678.00;0.10;50.29;;;;;4.30;1.00;;;;;;2279255;61;1471;-85
2022/03/08 06:57:29;804516.00;2.68;1389.00;0.00;0.00;0.62;;;;;4.00;1.00;;;;;;2268336;61;1597;-83
2022/03/08 06:59:59;739726.00;2.47;1276.20;0.00;0.00;0.62;;;;;3.80;1.00;;;;;;2268510;61;1669;-86
2022/03/08 07:02:26;825118.00;2.75;1424.97;0.00;0.00;0.62;;;;;3.40;1.00;;;;;;2268218;61;1557;-83
2022/03/08 07:05:08;959331.00;3.20;1660.57;0.00;0.00;0.62;;;;;3.40;1.00;;;;;;2268839;61;1702;-82
2022/03/08 07:07:43;792127.00;2.64;1367.40;8585.00;0.03;15.50;;;;;3.80;1.00;;;;;;2269424;61;1202;-81
2022/03/08 07:10:15;1042239.00;3.47;1807.43;51120.00;0.17;89.12;;;;;4.10;1.00;;;;;;2268080;61;2011;-83
2022/03/08 07:15:14;2176419.00;7.25;3993.09;130354.00;0.43;225.94;;;;;5.60;1.00;;;;;;2281098;61;2029;-83
2022/03/08 07:17:47;1282930.00;4.28;2240.90;128681.00;0.43;223.05;;;;;7.20;1.00;;;;;;2263038;61;1057;-83
2022/03/08 07:20:17;123715592.00;412.39;76712232.00;0.00;0.00;0.62;;;;;7.90;1.00;;;;;;2263502;61;1589;-82
2022/03/08 07:22:53;588510.00;1.96;1014.38;0.00;0.00;0.62;;;;;7.70;1.00;;;;;;2260072;61;1649;-83
2022/03/08 07:25:22;488721.00;1.63;842.41;0.00;0.00;0.62;;;;;7.90;1.00;;;;;;2258549;61;1655;-83
2022/03/08 07:27:49;608288.00;2.03;1048.53;0.00;0.00;0.62;;;;;7.50;1.00;;;;;;2258654;61;1168;-83
2022/03/08 07:30:16;536476.00;1.79;924.65;0.00;0.00;0.62;;;;;7.30;1.00;;;;;;2260091;61;1927;-85
2022/03/08 07:35:25;;;;;;;;;;;;;;;;;;;;;
2022/03/08 07:38:03;667937.00;2.23;1151.68;12373.00;0.04;22.06;;;;;7.20;1.00;;;;;;2275572;61;1024;-83
2022/03/08 07:40:38;1389723.00;4.63;2437.28;109096.00;0.36;189.27;;;;;7.10;1.00;;;;;;2266073;61;1179;-83
2022/03/08 07:45:42;2685509.00;8.95;5140.06;212535.00;0.71;367.50;;;;;8.30;1.00;;;;;;2277075;61;1723;-84
2022/03/08 07:48:15;1576119.00;5.25;2787.19;194309.00;0.65;336.13;;;;;8.70;1.00;;;;;;2262407;61;1112;-83
2022/03/08 07:50:49;702452.00;2.34;1211.49;94751.00;0.32;164.51;;;;;9.10;1.00;;;;;;2251004;61;1924;-84
2022/03/08 07:55:53;1639811.00;5.47;2909.07;63362.00;0.21;110.29;;;;;9.90;1.00;;;;;;2276959;61;1410;-85
2022/03/08 07:58:42;601527.00;2.01;1036.86;86671.00;0.29;150.56;;;;;10.10;1.00;;;;;;2266274;61;1174;-84
2022/03/08 08:08:53;1142629.00;3.81;1986.83;49573.00;0.17;86.45;;;;;10.00;1.00;;;;;;2232042;62;1519;-84
2022/03/08 08:23:04;632834.00;2.11;1090.95;164.00;0.00;0.90;;;;;10.90;1.00;;;;;;2250072;61;1326;-85
2022/03/08 08:31:58;1770825.00;5.90;3163.88;67853.00;0.23;118.05;;;;;8.50;1.00;;;;;;2239055;62;1929;-84
2022/03/08 08:34:28;1545851.00;5.15;2729.70;252847.00;0.84;436.85;;;;;8.80;1.00;;;;;;2239614;62;2219;-84
2022/03/08 08:37:00;121926752.00;406.42;73429488.00;170500.00;0.57;295.13;;;;;8.40;1.00;;;;;;2239282;62;1068;-84
2022/03/08 08:39:39;622902.00;2.08;1073.78;88856.00;0.30;154.33;;;;;8.50;1.00;;;;;;2231872;62;1116;-84
2022/03/08 08:50:07;2824208.00;9.41;5476.88;209949.00;0.70;363.05;;;;;7.60;1.00;;;;;;2278873;61;1954;-85
2022/03/08 08:55:50;1238266.00;4.13;2159.56;83731.00;0.28;145.48;;;;;7.90;1.00;;;;;;2279907;61;747;-84
2022/03/08 09:03:23;1224449.00;4.08;2134.49;0.00;0.00;0.62;;;;;8.00;1.00;;;;;;2278048;61;1339;-85
2022/03/08 09:05:55;570242.00;1.90;982.86;0.00;0.00;0.62;;;;;8.00;1.00;;;;;;2277125;61;1544;-85
2022/03/08 09:08:26;447101.00;1.49;770.80;0.00;0.00;0.62;;;;;7.90;1.00;;;;;;2275589;61;1071;-85
2022/03/08 09:11:04;924703.00;3.08;1599.55;0.00;0.00;0.62;;;;;8.30;1.00;;;;;;2275278;61;2107;-85
2022/03/08 09:13:36;624810.00;2.08;1077.08;32967.00;0.11;57.72;;;;;8.50;1.00;;;;;;2275641;61;1702;-84
2022/03/08 09:16:07;1595726.00;5.32;2824.57;130590.00;0.44;226.35;;;;;8.70;1.00;;;;;;2274424;61;1586;-84
2022/03/08 09:21:41;1741027.00;5.80;3105.42;120941.00;0.40;209.71;;;;;9.40;1.00;;;;;;2262177;61;1520;-85
2022/03/08 09:24:15;1747402.00;5.82;3117.90;80855.00;0.27;140.51;;;;;9.10;1.00;;;;;;2261951;61;1462;-85
2022/03/08 09:26:47;837391.00;2.79;1446.41;72517.00;0.24;126.11;;;;;8.70;1.00;;;;;;2261907;61;1663;-84
2022/03/08 09:29:21;903343.00;3.01;1561.99;0.00;0.00;0.62;;;;;8.50;1.00;;;;;;2262156;61;1656;-85
2022/03/08 09:31:52;392741.00;1.31;677.33;0.00;0.00;0.62;;;;;8.70;1.00;;;;;;2264997;61;2013;-85
2022/03/08 09:34:26;553363.00;1.84;953.76;11257.00;0.04;20.13;;;;;8.10;1.00;;;;;;2263886;61;1740;-84
2022/03/08 09:37:04;552896.00;1.84;952.95;25687.00;0.09;45.12;;;;;8.70;1.00;;;;;;2259851;61;1160;-85
2022/03/08 09:39:36;1624302.00;5.41;2879.27;195966.00;0.65;338.98;;;;;9.10;1.00;;;;;;2263766;61;1136;-85
2022/03/08 09:42:12;1800163.00;6.00;3221.74;162696.00;0.54;281.68;;;;;9.50;1.00;;;;;;2264158;61;1282;-84
2022/03/08 09:44:48;2078704.00;6.93;3787.20;144583.00;0.48;250.47;;;;;9.20;1.00;;;;;;2262699;61;1230;-84
2022/03/08 09:47:22;2002972.00;6.68;3630.43;87939.00;0.29;152.75;;;;;9.20;1.00;;;;;;2251124;61;1113;-86
2022/03/08 09:49:58;1148200.00;3.83;1996.84;171863.00;0.57;297.48;;;;;9.30;1.00;;;;;;2252213;61;1295;-85
2022/03/08 09:52:27;762150.00;2.54;1315.19;79350.00;0.26;137.91;;;;;9.10;1.00;;;;;;2252071;61;2023;-85
2022/03/08 09:55:04;502508.00;1.68;866.14;97319.00;0.32;168.94;;;;;9.30;1.00;;;;;;2257909;61;1121;-85
2022/03/08 09:57:44;458505.00;1.53;790.41;91016.00;0.30;158.06;;;;;9.50;1.00;;;;;;2264155;61;1107;-83
2022/03/08 10:00:21;823567.00;2.75;1422.26;77083.00;0.26;134.00;;;;;9.90;1.00;;;;;;2264170;61;1101;-84
2022/03/08 10:03:03;394504.00;1.32;680.36;0.00;0.00;0.62;;;;;10.00;1.00;;;;;;2259903;61;1342;-84
2022/03/08 10:05:48;423787.00;1.41;730.70;0.00;0.00;0.62;;;;;9.60;1.00;;;;;;2260229;61;1168;-84
2022/03/08 10:08:19;317730.00;1.06;548.40;0.00;0.00;0.62;;;;;10.00;1.00;;;;;;2263852;61;1712;-84
2022/03/08 10:16:23;1190723.00;3.97;2073.46;0.00;0.00;0.62;;;;;9.90;1.00;;;;;;2278429;61;1419;-84
2022/03/08 10:19:03;382369.00;1.27;659.50;0.00;0.00;0.62;;;;;9.60;1.00;;;;;;2276565;61;1591;-84
2022/03/08 10:21:33;590296.00;1.97;1017.47;0.00;0.00;0.62;;;;;9.00;1.00;;;;;;2277661;61;2084;-84
2022/03/08 10:26:50;1024939.00;3.42;1776.69;0.00;0.00;0.62;;;;;8.60;1.00;;;;;;2277633;61;1370;-85
2022/03/08 10:29:36;796388.00;2.65;1374.83;71673.00;0.24;124.65;;;;;8.90;1.00;;;;;;2275764;61;1189;-85
2022/03/08 10:32:10;631209.00;2.10;1088.14;0.00;0.00;0.62;;;;;9.00;1.00;;;;;;2258309;61;2018;-86
2022/03/08 10:34:39;1761202.00;5.87;3144.97;214381.00;0.71;370.67;;;;;8.90;1.00;;;;;;2261094;61;1550;-86
2022/03/08 10:37:12;970826.00;3.24;1680.87;101067.00;0.34;175.41;;;;;8.80;1.00;;;;;;2261118;61;1159;-86
2022/03/08 10:39:50;533990.00;1.78;920.37;0.00;0.00;0.62;;;;;8.70;1.00;;;;;;2258829;61;1702;-84
2022/03/08 10:42:21;763489.00;2.54;1317.52;0.00;0.00;0.62;;;;;8.20;1.00;;;;;;2261792;61;1658;-86
2022/03/08 10:47:19;1156327.00;3.85;2011.45;0.00;0.00;0.62;;;;;8.80;1.00;;;;;;2281677;61;1304;-88
2022/03/08 10:49:52;119998856.00;400.00;69998000.00;36722.00;0.12;64.22;;;;;9.30;1.00;;;;;;2280695;61;1591;-87
2022/03/08 10:52:27;1830553.00;6.10;3282.00;112782.00;0.38;195.63;;;;;9.30;1.00;;;;;;2280729;61;2026;-85
2022/03/08 10:54:54;846959.00;2.82;1463.15;95498.00;0.32;165.80;;;;;9.40;1.00;;;;;;2280441;61;1649;-85
2022/03/08 10:57:21;615674.00;2.05;1061.29;79912.00;0.27;138.89;;;;;9.10;1.00;;;;;;2279391;61;1435;-84
2022/03/08 10:59:55;619516.00;2.07;1067.93;120118.00;0.40;208.29;;;;;9.00;1.00;;;;;;2279173;61;1373;-84
2022/03/08 11:02:24;336079.00;1.12;579.93;0.00;0.00;0.62;;;;;8.80;1.00;;;;;;2278183;61;1357;-85
2022/03/08 11:05:08;680784.00;2.27;1173.93;15288.00;0.05;27.11;;;;;8.70;1.00;;;;;;2278703;61;993;-85
2022/03/08 11:07:42;653831.00;2.18;1127.26;97492.00;0.32;169.24;;;;;9.30;1.00;;;;;;2278605;61;1059;-85
2022/03/08 11:10:11;794994.00;2.65;1372.39;102539.00;0.34;177.95;;;;;9.30;1.00;;;;;;2278639;61;1119;-85
2022/03/08 11:12:40;509931.00;1.70;878.92;41914.00;0.14;73.20;;;;;8.80;1.00;;;;;;2278796;61;1947;-85
2022/03/08 11:15:09;451577.00;1.51;778.50;0.00;0.00;0.62;;;;;9.00;1.00;;;;;;2277212;61;1442;-84
2022/03/08 11:17:39;339175.00;1.13;585.26;0.00;0.00;0.62;;;;;9.30;1.00;;;;;;2278541;61;1340;-85
2022/03/08 11:20:09;456328.00;1.52;786.67;0.00;0.00;0.62;;;;;9.30;1.00;;;;;;2278117;61;1089;-85
2022/03/08 11:22:37;588024.00;1.96;1013.55;39045.00;0.13;68.24;;;;;9.30;1.00;;;;;;2279189;61;1276;-86
2022/03/08 11:25:05;493726.00;1.65;851.02;0.00;0.00;0.62;;;;;8.90;1.00;;;;;;2278106;61;1010;-85
2022/03/08 11:27:33;340616.00;1.14;587.73;0.00;0.00;0.62;;;;;8.70;1.00;;;;;;2277717;61;1167;-86
2022/03/08 11:30:01;1336698.00;4.46;2339.43;227804.00;0.76;393.77;;;;;9.40;1.00;;;;;;2277178;61;1088;-86
2022/03/08 11:32:35;1239536.00;4.13;2161.87;50674.00;0.17;88.35;;;;;9.50;1.00;;;;;;2276709;61;2024;-85
2022/03/08 11:35:14;124201120.00;414.00;77619808.00;0.00;0.00;0.62;;;;;9.90;1.00;;;;;;2276878;61;1143;-86
2022/03/08 11:37:46;364595.00;1.22;628.95;0.00;0.00;0.62;;;;;9.80;1.00;;;;;;2277562;61;1109;-86
2022/03/08 11:40:15;378836.00;1.26;653.42;0.00;0.00;0.62;;;;;10.10;1.00;;;;;;2277016;61;1194;-86
2022/03/08 11:42:46;384027.00;1.28;662.35;0.00;0.00;0.62;;;;;10.40;1.00;;;;;;2276829;61;1312;-86
2022/03/08 11:45:18;332877.00;1.11;574.43;0.00;0.00;0.62;;;;;10.50;1.00;;;;;;2278645;61;1174;-86
2022/03/08 11:47:54;405576.00;1.35;699.39;0.00;0.00;0.62;;;;;9.80;1.00;;;;;;2277879;61;1401;-85
2022/03/08 11:50:27;331486.00;1.10;572.04;0.00;0.00;0.62;;;;;9.50;1.00;;;;;;2276702;61;1085;-85
2022/03/08 11:53:10;263413.00;0.88;455.02;0.00;0.00;0.62;;;;;9.50;1.00;;;;;;2277542;61;2037;-85
2022/03/08 11:55:40;525880.00;1.75;906.39;0.00;0.00;0.62;;;;;9.60;1.00;;;;;;2277226;61;1073;-84
2022/03/08 11:58:08;554542.00;1.85;955.79;27901.00;0.09;48.95;;;;;9.60;1.00;;;;;;2276294;61;1569;-84
2022/03/08 12:00:42;306552.00;1.02;529.18;0.00;0.00;0.62;;;;;9.40;1.00;;;;;;2276860;61;1176;-85
2022/03/08 12:03:11;647327.00;2.16;1116.01;6851.00;0.02;12.49;;;;;9.90;1.00;;;;;;2276980;61;1995;-85
2022/03/08 12:06:02;1346368.00;4.49;2357.22;207007.00;0.69;357.98;;;;;10.50;1.00;;;;;;2276864;61;1101;-86
2022/03/08 12:09:07;1667749.00;5.56;2962.93;208409.00;0.69;360.40;;;;;10.60;1.00;;;;;;2277411;61;1236;-85
2022/03/08 12:11:46;355266.00;1.18;612.91;0.00;0.00;0.62;;;;;9.70;1.00;;;;;;2279680;61;2006;-86
2022/03/08 12:14:22;1136888.00;3.79;1976.52;62051.00;0.21;108.02;;;;;9.10;1.00;;;;;;2277886;61;1434;-86
2022/03/08 12:16:51;1868683.00;6.23;3358.08;116411.00;0.39;201.89;;;;;9.50;1.00;;;;;;2277905;61;1616;-85
2022/03/08 12:19:31;1136765.00;3.79;1976.30;50613.00;0.17;88.25;;;;;9.60;1.00;;;;;;2276702;61;1106;-85
2022/03/08 12:22:00;1798626.00;6.00;3218.70;156446.00;0.52;270.92;;;;;10.00;1.00;;;;;;2279444;61;1835;-85
2022/03/08 12:24:28;756079.00;2.52;1304.63;92592.00;0.31;160.78;;;;;9.80;1.00;;;;;;2278242;61;1155;-87
2022/03/08 12:27:01;491285.00;1.64;846.82;91450.00;0.30;158.81;;;;;10.10;1.00;;;;;;2278810;61;1117;-85
2022/03/08 12:29:31;659038.00;2.20;1136.28;84888.00;0.28;147.48;;;;;9.90;1.00;;;;;;2276573;61;1050;-84
2022/03/08 12:32:27;303355.00;1.01;523.69;0.00;0.00;0.62;;;;;9.60;1.00;;;;;;2276565;61;1925;-85
2022/03/08 12:35:00;544539.00;1.82;938.55;115192.00;0.38;199.79;;;;;10.20;1.00;;;;;;2278225;61;1151;-85
2022/03/08 12:37:31;584420.00;1.95;1007.33;96730.00;0.32;167.93;;;;;10.20;1.00;;;;;;2280133;61;1167;-86
2022/03/08 12:40:00;360974.00;1.20;622.72;0.00;0.00;0.62;;;;;10.20;1.00;;;;;;2280463;61;1356;-86
2022/03/08 12:42:32;529600.00;1.77;912.80;35198.00;0.12;61.58;;;;;10.50;1.00;;;;;;2279728;61;1296;-84
2022/03/08 12:45:12;280306.00;0.93;484.06;0.00;0.00;0.62;;;;;10.50;1.00;;;;;;2277592;61;1139;-85
2022/03/08 12:47:42;449464.00;1.50;774.86;16692.00;0.06;29.54;;;;;10.80;1.00;;;;;;2277830;61;1664;-86
2022/03/08 12:50:14;832374.00;2.77;1437.64;90668.00;0.30;157.46;;;;;10.50;1.00;;;;;;2278435;61;1551;-86
2022/03/08 12:52:45;906587.00;3.02;1567.69;107860.00;0.36;187.14;;;;;10.00;1.00;;;;;;2277785;61;2024;-86
2022/03/08 12:55:15;539836.00;1.80;930.44;92664.00;0.31;160.91;;;;;9.90;1.00;;;;;;2277500;61;1037;-85
2022/03/08 12:57:48;382138.00;1.27;659.10;91984.00;0.31;159.73;;;;;10.20;1.00;;;;;;2277135;61;1080;-85
2022/03/08 13:00:26;586904.00;1.96;1011.61;88839.00;0.30;154.30;;;;;10.20;1.00;;;;;;2277142;61;1108;-86
2022/03/08 13:02:54;597989.00;1.99;1030.75;0.00;0.00;0.62;;;;;9.70;1.00;;;;;;2276874;61;1606;-85
2022/03/08 13:05:27;258225.00;0.86;446.10;0.00;0.00;0.62;;;;;10.00;1.00;;;;;;2276926;61;1139;-84
2022/03/08 13:07:56;246366.00;0.82;425.70;0.00;0.00;0.62;;;;;10.70;1.00;;;;;;2277058;61;1544;-85
2022/03/08 13:10:23;328557.00;1.10;567.01;0.00;0.00;0.62;;;;;11.00;1.00;;;;;;2278176;61;1249;-85
2022/03/08 13:12:52;333292.00;1.11;575.14;0.00;0.00;0.62;;;;;10.70;1.00;;;;;;2276795;61;1996;-85
2022/03/08 13:15:23;287703.00;0.96;496.78;0.00;0.00;0.62;;;;;10.80;1.00;;;;;;2276738;61;1087;-84
2022/03/08 13:17:53;297681.00;0.99;513.93;0.00;0.00;0.62;;;;;11.10;1.00;;;;;;2277612;61;1302;-85
2022/03/08 13:20:35;196196.00;0.65;339.38;0.00;0.00;0.62;;;;;11.30;1.00;;;;;;2277057;61;1433;-85
2022/03/08 13:23:07;434242.00;1.45;748.68;26453.00;0.09;46.44;;;;;11.60;1.00;;;;;;2277441;60;1557;-84
2022/03/08 13:25:35;680937.00;2.27;1174.20;15624.00;0.05;27.69;;;;;12.30;1.00;;;;;;2277905;61;2391;-85
2022/03/08 13:28:06;832213.00;2.77;1437.36;14703.00;0.05;26.10;;;;;11.40;1.00;;;;;;2277376;61;1494;-84
2022/03/08 13:30:36;906300.00;3.02;1567.19;0.00;0.00;0.62;;;;;10.60;1.00;;;;;;2277744;61;1102;-84
2022/03/08 13:33:30;650099.00;2.17;1120.81;0.00;0.00;0.62;;;;;10.80;1.00;;;;;;2276262;61;1946;-84
2022/03/08 13:36:00;390706.00;1.30;673.83;0.00;0.00;0.62;;;;;11.50;1.00;;;;;;2276251;61;1115;-85
2022/03/08 13:38:30;405019.00;1.35;698.43;0.00;0.00;0.62;;;;;11.60;1.00;;;;;;2276931;61;1147;-85
2022/03/08 13:41:01;248361.00;0.83;429.13;0.00;0.00;0.62;;;;;10.90;1.00;;;;;;2275856;61;1637;-85
2022/03/08 13:43:30;341261.00;1.14;588.84;0.00;0.00;0.62;;;;;11.20;1.00;;;;;;2275164;61;1562;-84
2022/03/08 13:46:00;467125.00;1.56;805.24;36693.00;0.12;64.17;;;;;11.40;1.00;;;;;;2275374;61;1056;-84
2022/03/08 13:48:29;439740.00;1.47;758.14;0.00;0.00;0.62;;;;;11.50;1.00;;;;;;2275573;61;1679;-84
2022/03/08 13:51:02;226992.00;0.76;392.37;0.00;0.00;0.62;;;;;11.90;1.00;;;;;;2277745;61;1117;-85
2022/03/08 13:56:00;343502.00;1.15;592.69;0.00;0.00;0.62;;;;;11.30;1.00;;;;;;2277810;61;1407;-84
2022/03/08 13:58:33;257514.00;0.86;444.87;0.00;0.00;0.62;;;;;11.70;1.00;;;;;;2278303;61;2144;-85
2022/03/08 14:01:07;123687832.00;412.29;76660552.00;0.00;0.00;0.62;;;;;11.50;1.00;;;;;;2278070;61;1170;-85
2022/03/08 14:03:39;429728.00;1.43;740.92;29528.00;0.10;51.77;;;;;11.20;1.00;;;;;;2277965;61;1455;-85
2022/03/08 14:06:10;304913.00;1.02;526.37;0.00;0.00;0.62;;;;;11.10;1.00;;;;;;2277672;61;1531;-85
2022/03/08 14:08:43;314836.00;1.05;543.42;0.00;0.00;0.62;;;;;11.00;1.00;;;;;;2276915;61;1132;-86
2022/03/08 14:11:14;186171.00;0.62;322.12;0.00;0.00;0.62;;;;;11.10;1.00;;;;;;2278027;61;1143;-85
2022/03/08 14:13:50;338144.00;1.13;583.48;0.00;0.00;0.62;;;;;11.20;1.00;;;;;;2277697;61;2007;-85
2022/03/08 14:16:17;413895.00;1.38;713.69;0.00;0.00;0.62;;;;;10.60;1.00;;;;;;2277754;61;1542;-86
2022/03/08 14:18:54;301697.00;1.01;520.84;0.00;0.00;0.62;;;;;10.50;1.00;;;;;;2278633;61;1347;-86
2022/03/08 14:21:28;469885.00;1.57;809.99;0.00;0.00;0.62;;;;;10.80;1.00;;;;;;2278103;61;1638;-86
2022/03/08 14:23:56;297987.00;0.99;514.46;0.00;0.00;0.62;;;;;11.20;1.00;;;;;;2279260;61;1477;-85
2022/03/08 14:26:25;315466.00;1.05;544.50;0.00;0.00;0.62;;;;;11.30;1.00;;;;;;2279174;61;1623;-85
2022/03/08 14:28:55;777300.00;2.59;1341.56;0.00;0.00;0.62;;;;;11.20;1.00;;;;;;2277481;61;1136;-85
2022/03/08 14:31:31;252152.00;0.84;435.65;0.00;0.00;0.62;;;;;11.40;1.00;;;;;;2278845;61;1183;-85
2022/03/08 14:34:04;627569.00;2.09;1081.85;0.00;0.00;0.62;;;;;11.10;1.00;;;;;;2278204;61;1385;-85
2022/03/08 14:36:34;330082.00;1.10;569.63;22155.00;0.07;39.00;;;;;10.70;1.00;;;;;;2279223;61;1210;-85
2022/03/08 14:39:01;491064.00;1.64;846.44;0.00;0.00;0.62;;;;;10.90;1.00;;;;;;2280324;61;2038;-85
2022/03/08 14:41:32;711107.00;2.37;1226.50;0.00;0.00;0.62;;;;;11.20;1.00;;;;;;2280454;61;1139;-86
2022/03/08 14:43:59;916428.00;3.05;1584.99;27663.00;0.09;48.54;;;;;11.00;1.00;;;;;;2280536;61;1479;-85
2022/03/08 14:46:26;1057722.00;3.53;1834.98;106919.00;0.36;185.51;;;;;10.70;1.00;;;;;;2280378;61;1179;-84
2022/03/08 14:48:53;662978.00;2.21;1143.10;83855.00;0.28;145.70;;;;;11.10;1.00;;;;;;2280311;61;1124;-85
2022/03/08 14:51:20;825641.00;2.75;1425.88;81737.00;0.27;142.04;;;;;11.30;1.00;;;;;;2278781;61;1285;-85
2022/03/08 14:53:47;864164.00;2.88;1493.27;80951.00;0.27;140.68;;;;;11.40;1.00;;;;;;2278089;61;1935;-86
2022/03/08 14:56:14;1014863.00;3.38;1758.81;88086.00;0.29;153.00;;;;;11.50;1.00;;;;;;2277375;61;1570;-85
2022/03/08 14:58:42;919500.00;3.07;1590.39;118739.00;0.40;205.91;;;;;11.40;1.00;;;;;;2277453;61;1102;-86
2022/03/08 15:01:10;1022930.00;3.41;1773.13;121764.00;0.41;211.13;;;;;11.50;1.00;;;;;;2277314;61;1652;-86
2022/03/08 15:03:37;747879.00;2.49;1290.37;88372.00;0.29;153.50;;;;;11.30;1.00;;;;;;2278052;61;1343;-85
2022/03/08 15:06:07;1237511.00;4.13;2158.19;231118.00;0.77;399.47;;;;;11.10;1.00;;;;;;2278419;61;1163;-85
2022/03/08 15:08:34;710483.00;2.37;1225.42;85430.00;0.28;148.42;;;;;10.80;1.00;;;;;;2278562;61;1068;-85
2022/03/08 15:11:01;882633.00;2.94;1525.64;86255.00;0.29;149.84;;;;;10.80;1.00;;;;;;2278439;61;1292;-85
2022/03/08 15:13:28;1019200.00;3.40;1766.51;115747.00;0.39;200.75;;;;;11.00;1.00;;;;;;2278207;61;1923;-85
2022/03/08 15:15:56;627231.00;2.09;1081.26;83021.00;0.28;144.26;;;;;11.90;1.00;;;;;;2277525;61;1122;-85
2022/03/08 15:18:24;837387.00;2.79;1446.41;89031.00;0.30;154.63;;;;;12.10;1.00;;;;;;2278201;61;1759;-85
2022/03/08 15:21:02;741120.00;2.47;1278.62;107849.00;0.36;187.12;;;;;11.40;1.00;;;;;;2277875;61;1492;-83
2022/03/08 15:23:31;738587.00;2.46;1274.22;89645.00;0.30;155.69;;;;;11.30;1.00;;;;;;2280577;61;1453;-87
2022/03/08 15:25:58;620788.00;2.07;1070.13;109029.00;0.36;189.15;;;;;11.40;1.00;;;;;;2280751;61;1139;-87
2022/03/08 15:28:25;117595648.00;391.99;65872516.00;87512.00;0.29;152.01;;;;;11.60;1.00;;;;;;2279227;61;1460;-86
2022/03/08 15:30:55;727275.00;2.42;1254.57;86833.00;0.29;150.84;;;;;11.50;1.00;;;;;;2277971;61;1191;-86
2022/03/08 15:33:24;216418.00;0.72;374.18;0.00;0.00;0.62;;;;;11.10;1.00;;;;;;2277163;61;2021;-85
2022/03/08 15:35:52;255178.00;0.85;440.86;0.00;0.00;0.62;;;;;11.30;1.00;;;;;;2277592;61;1270;-84
2022/03/08 15:38:19;336164.00;1.12;580.08;0.00;0.00;0.62;;;;;11.60;1.00;;;;;;2278526;61;1700;-83
2022/03/08 15:40:46;400034.00;1.33;689.86;0.00;0.00;0.62;;;;;11.80;1.00;;;;;;2277802;61;1112;-84
2022/03/08 15:43:13;257747.00;0.86;445.27;0.00;0.00;0.62;;;;;12.10;1.00;;;;;;2278500;61;1242;-85
2022/03/08 15:45:41;361279.00;1.20;623.25;0.00;0.00;0.62;;;;;12.20;1.00;;;;;;2278237;61;1134;-84
2022/03/08 15:48:10;309727.00;1.03;534.64;12520.00;0.04;22.31;;;;;12.20;1.00;;;;;;2278095;61;1157;-85
2022/03/08 15:50:37;294600.00;0.98;508.64;0.00;0.00;0.62;;;;;12.40;1.00;;;;;;2277248;61;2509;-84
2022/03/08 15:53:07;247144.00;0.82;427.04;0.00;0.00;0.62;;;;;12.20;1.00;;;;;;2276991;61;2002;-85
2022/03/08 15:55:36;579149.00;1.93;998.23;7144.00;0.02;13.00;;;;;12.00;1.00;;;;;;2276850;61;1093;-85
2022/03/08 15:58:03;487452.00;1.62;840.22;0.00;0.00;0.62;;;;;11.70;1.00;;;;;;2276917;61;1451;-84
2022/03/08 16:00:31;321921.00;1.07;555.60;0.00;0.00;0.62;;;;;11.40;1.00;;;;;;2277927;61;1236;-84
2022/03/08 16:02:58;257916.00;0.86;445.56;0.00;0.00;0.62;;;;;11.50;1.00;;;;;;2277678;61;1285;-84
2022/03/08 16:05:29;145339.00;0.48;251.77;0.00;0.00;0.62;;;;;11.60;1.00;;;;;;2277695;61;1119;-84
2022/03/08 16:07:56;216156.00;0.72;373.73;0.00;0.00;0.62;;;;;11.60;1.00;;;;;;2278284;61;1951;-84
2022/03/08 16:10:23;297810.00;0.99;514.16;0.00;0.00;0.62;;;;;11.30;1.00;;;;;;2278143;61;1398;-85
2022/03/08 16:12:50;389385.00;1.30;671.56;0.00;0.00;0.62;;;;;11.40;1.00;;;;;;2277678;61;2016;-84
2022/03/08 16:15:18;306977.00;1.02;529.91;0.00;0.00;0.62;;;;;11.40;1.00;;;;;;2278608;61;1247;-84
2022/03/08 16:17:50;355886.00;1.19;613.98;0.00;0.00;0.62;;;;;11.50;1.00;;;;;;2280441;61;1139;-85
2022/03/08 16:20:17;536270.00;1.79;924.30;0.00;0.00;0.62;;;;;11.50;1.00;;;;;;2280334;61;1576;-84
2022/03/08 16:22:45;371645.00;1.24;641.06;0.00;0.00;0.62;;;;;11.60;1.00;;;;;;2277714;61;1359;-85
2022/03/08 16:25:12;222861.00;0.74;385.27;0.00;0.00;0.62;;;;;11.90;1.00;;;;;;2276687;61;1153;-84
2022/03/08 16:27:40;185603.00;0.62;321.14;0.00;0.00;0.62;;;;;12.20;1.00;;;;;;2278249;61;1091;-84
2022/03/08 16:30:08;290160.00;0.97;501.00;0.00;0.00;0.62;;;;;12.40;1.00;;;;;;2278125;61;1721;-85
2022/03/08 16:32:35;442921.00;1.48;763.61;42874.00;0.14;74.86;;;;;12.30;1.00;;;;;;2280245;61;2032;-85